sensor_id;sensor_type;location;lat;lon;timestamp;P1;durP1;ratioP1;P2;durP2;ratioP2
11646;SDS011;5880;52.342;9.662;2023-07-30T00:02:04;1.02;;;1.02;;
11646;SDS011;5880;52.342;9.662;2023-07-30T00:04:29;1.90;;;1.40;;
11646;SDS011;5880;52.342;9.662;2023-07-30T00:06:55;1.30;;;1.20;;
11646;SDS011;5880;52.342;9.662;2023-07-30T00:09:21;1.30;;;1.20;;
11646;SDS011;5880;52.342;9.662;2023-07-30T00:11:47;1.30;;;1.20;;
11646;SDS011;5880;52.342;9.662;2023-07-30T00:14:12;1.15;;;1.05;;
11646;SDS011;5880;52.342;9.662;2023-07-30T00:16:38;1.10;;;1.05;;
11646;SDS011;5880;52.342;9.662;2023-07-30T00:19:03;1.30;;;1.20;;
11646;SDS011;5880;52.342;9.662;2023-07-30T00:21:29;1.38;;;1.27;;
11646;SDS011;5880;52.342;9.662;2023-07-30T00:23:55;1.20;;;1.10;;
11646;SDS011;5880;52.342;9.662;2023-07-30T00:26:20;1.60;;;1.10;;
11646;SDS011;5880;52.342;9.662;2023-07-30T00:28:46;1.40;;;1.15;;
11646;SDS011;5880;52.342;9.662;2023-07-30T00:31:12;2.28;;;1.20;;
11646;SDS011;5880;52.342;9.662;2023-07-30T00:33:37;1.63;;;1.13;;
11646;SDS011;5880;52.342;9.662;2023-07-30T00:36:03;1.67;;;1.05;;
11646;SDS011;5880;52.342;9.662;2023-07-30T00:38:29;1.67;;;1.20;;
11646;SDS011;5880;52.342;9.662;2023-07-30T00:40:54;1.40;;;1.15;;
11646;SDS011;5880;52.342;9.662;2023-07-30T00:43:20;1.35;;;1.13;;
11646;SDS011;5880;52.342;9.662;2023-07-30T00:45:46;1.70;;;1.10;;
11646;SDS011;5880;52.342;9.662;2023-07-30T00:48:12;1.88;;;1.42;;
11646;SDS011;5880;52.342;9.662;2023-07-30T00:50:39;1.40;;;1.30;;
11646;SDS011;5880;52.342;9.662;2023-07-30T00:53:07;1.90;;;1.42;;
11646;SDS011;5880;52.342;9.662;2023-07-30T00:55:36;1.60;;;1.30;;
11646;SDS011;5880;52.342;9.662;2023-07-30T00:58:02;2.20;;;1.40;;
11646;SDS011;5880;52.342;9.662;2023-07-30T01:00:28;1.30;;;1.20;;
11646;SDS011;5880;52.342;9.662;2023-07-30T01:02:55;1.52;;;1.30;;
11646;SDS011;5880;52.342;9.662;2023-07-30T01:05:21;3.90;;;1.45;;
11646;SDS011;5880;52.342;9.662;2023-07-30T01:07:47;1.60;;;1.50;;
11646;SDS011;5880;52.342;9.662;2023-07-30T01:10:13;1.60;;;1.45;;
11646;SDS011;5880;52.342;9.662;2023-07-30T01:12:40;2.75;;;1.60;;
11646;SDS011;5880;52.342;9.662;2023-07-30T01:15:08;1.48;;;1.38;;
11646;SDS011;5880;52.342;9.662;2023-07-30T01:17:35;1.40;;;1.30;;
11646;SDS011;5880;52.342;9.662;2023-07-30T01:20:01;2.75;;;1.50;;
11646;SDS011;5880;52.342;9.662;2023-07-30T01:22:27;1.58;;;1.48;;
11646;SDS011;5880;52.342;9.662;2023-07-30T01:24:53;1.50;;;1.40;;
11646;SDS011;5880;52.342;9.662;2023-07-30T01:27:24;1.45;;;1.35;;
11646;SDS011;5880;52.342;9.662;2023-07-30T01:30:08;1.70;;;1.60;;
11646;SDS011;5880;52.342;9.662;2023-07-30T01:32:49;1.50;;;1.40;;
11646;SDS011;5880;52.342;9.662;2023-07-30T01:35:17;1.25;;;1.10;;
11646;SDS011;5880;52.342;9.662;2023-07-30T01:37:52;1.85;;;1.60;;
11646;SDS011;5880;52.342;9.662;2023-07-30T01:40:19;1.85;;;1.75;;
11646;SDS011;5880;52.342;9.662;2023-07-30T01:42:46;1.85;;;1.70;;
11646;SDS011;5880;52.342;9.662;2023-07-30T01:45:13;1.52;;;1.42;;
11646;SDS011;5880;52.342;9.662;2023-07-30T01:47:39;2.33;;;1.80;;
11646;SDS011;5880;52.342;9.662;2023-07-30T01:50:05;1.88;;;1.77;;
11646;SDS011;5880;52.342;9.662;2023-07-30T01:52:31;2.13;;;1.58;;
11646;SDS011;5880;52.342;9.662;2023-07-30T01:54:56;2.20;;;1.92;;
11646;SDS011;5880;52.342;9.662;2023-07-30T01:57:23;2.00;;;1.80;;
11646;SDS011;5880;52.342;9.662;2023-07-30T01:59:49;1.65;;;1.50;;
11646;SDS011;5880;52.342;9.662;2023-07-30T02:02:15;1.77;;;1.67;;
11646;SDS011;5880;52.342;9.662;2023-07-30T02:04:40;1.77;;;1.67;;
11646;SDS011;5880;52.342;9.662;2023-07-30T02:07:06;1.77;;;1.67;;
11646;SDS011;5880;52.342;9.662;2023-07-30T02:09:32;2.22;;;1.90;;
11646;SDS011;5880;52.342;9.662;2023-07-30T02:11:57;2.63;;;1.55;;
11646;SDS011;5880;52.342;9.662;2023-07-30T02:14:26;1.83;;;1.63;;
11646;SDS011;5880;52.342;9.662;2023-07-30T02:16:51;1.95;;;1.60;;
11646;SDS011;5880;52.342;9.662;2023-07-30T02:19:17;2.28;;;1.70;;
11646;SDS011;5880;52.342;9.662;2023-07-30T02:21:43;3.20;;;1.80;;
11646;SDS011;5880;52.342;9.662;2023-07-30T02:24:09;4.05;;;1.83;;
11646;SDS011;5880;52.342;9.662;2023-07-30T02:26:37;1.92;;;1.80;;
11646;SDS011;5880;52.342;9.662;2023-07-30T02:29:03;1.67;;;1.58;;
11646;SDS011;5880;52.342;9.662;2023-07-30T02:31:29;2.20;;;1.70;;
11646;SDS011;5880;52.342;9.662;2023-07-30T02:33:55;1.80;;;1.70;;
11646;SDS011;5880;52.342;9.662;2023-07-30T02:36:21;1.70;;;1.60;;
11646;SDS011;5880;52.342;9.662;2023-07-30T02:38:47;2.28;;;1.60;;
11646;SDS011;5880;52.342;9.662;2023-07-30T02:41:13;1.90;;;1.70;;
11646;SDS011;5880;52.342;9.662;2023-07-30T02:43:39;1.70;;;1.60;;
11646;SDS011;5880;52.342;9.662;2023-07-30T02:46:04;1.77;;;1.67;;
11646;SDS011;5880;52.342;9.662;2023-07-30T02:48:31;1.70;;;1.60;;
11646;SDS011;5880;52.342;9.662;2023-07-30T02:50:57;2.45;;;1.88;;
11646;SDS011;5880;52.342;9.662;2023-07-30T02:53:23;1.90;;;1.55;;
11646;SDS011;5880;52.342;9.662;2023-07-30T02:55:49;3.17;;;1.90;;
11646;SDS011;5880;52.342;9.662;2023-07-30T02:58:14;2.03;;;1.63;;
11646;SDS011;5880;52.342;9.662;2023-07-30T03:00:40;1.65;;;1.55;;
11646;SDS011;5880;52.342;9.662;2023-07-30T03:03:06;1.75;;;1.63;;
11646;SDS011;5880;52.342;9.662;2023-07-30T03:05:31;1.60;;;1.50;;
11646;SDS011;5880;52.342;9.662;2023-07-30T03:07:57;1.60;;;1.50;;
11646;SDS011;5880;52.342;9.662;2023-07-30T03:10:23;1.98;;;1.70;;
11646;SDS011;5880;52.342;9.662;2023-07-30T03:12:48;2.45;;;1.58;;
11646;SDS011;5880;52.342;9.662;2023-07-30T03:15:14;1.30;;;1.20;;
11646;SDS011;5880;52.342;9.662;2023-07-30T03:17:40;2.30;;;1.80;;
11646;SDS011;5880;52.342;9.662;2023-07-30T03:20:05;1.40;;;1.30;;
11646;SDS011;5880;52.342;9.662;2023-07-30T03:22:32;1.67;;;1.50;;
11646;SDS011;5880;52.342;9.662;2023-07-30T03:24:57;1.65;;;1.30;;
11646;SDS011;5880;52.342;9.662;2023-07-30T03:27:23;2.58;;;1.60;;
11646;SDS011;5880;52.342;9.662;2023-07-30T03:29:49;2.03;;;1.70;;
11646;SDS011;5880;52.342;9.662;2023-07-30T03:32:14;1.60;;;1.50;;
11646;SDS011;5880;52.342;9.662;2023-07-30T03:34:40;1.60;;;1.50;;
11646;SDS011;5880;52.342;9.662;2023-07-30T03:37:06;1.80;;;1.52;;
11646;SDS011;5880;52.342;9.662;2023-07-30T03:39:31;1.60;;;1.50;;
11646;SDS011;5880;52.342;9.662;2023-07-30T03:41:57;2.42;;;1.67;;
11646;SDS011;5880;52.342;9.662;2023-07-30T03:44:22;6.00;;;1.92;;
11646;SDS011;5880;52.342;9.662;2023-07-30T03:46:48;1.98;;;1.27;;
11646;SDS011;5880;52.342;9.662;2023-07-30T03:49:14;3.13;;;2.00;;
11646;SDS011;5880;52.342;9.662;2023-07-30T03:51:39;1.63;;;1.50;;
11646;SDS011;5880;52.342;9.662;2023-07-30T03:54:05;1.77;;;1.42;;
11646;SDS011;5880;52.342;9.662;2023-07-30T03:56:31;1.95;;;1.50;;
11646;SDS011;5880;52.342;9.662;2023-07-30T03:58:56;2.20;;;1.52;;
11646;SDS011;5880;52.342;9.662;2023-07-30T04:01:22;2.90;;;1.42;;
11646;SDS011;5880;52.342;9.662;2023-07-30T04:03:48;2.53;;;1.70;;
11646;SDS011;5880;52.342;9.662;2023-07-30T04:06:13;2.55;;;1.60;;
11646;SDS011;5880;52.342;9.662;2023-07-30T04:08:39;2.35;;;1.50;;
11646;SDS011;5880;52.342;9.662;2023-07-30T04:11:05;1.83;;;1.60;;
11646;SDS011;5880;52.342;9.662;2023-07-30T04:13:31;2.33;;;1.70;;
11646;SDS011;5880;52.342;9.662;2023-07-30T04:15:56;2.60;;;2.00;;
11646;SDS011;5880;52.342;9.662;2023-07-30T04:18:22;2.40;;;1.77;;
11646;SDS011;5880;52.342;9.662;2023-07-30T04:20:48;2.50;;;1.70;;
11646;SDS011;5880;52.342;9.662;2023-07-30T04:23:13;1.60;;;1.50;;
11646;SDS011;5880;52.342;9.662;2023-07-30T04:25:40;1.98;;;1.80;;
11646;SDS011;5880;52.342;9.662;2023-07-30T04:28:05;1.90;;;1.60;;
11646;SDS011;5880;52.342;9.662;2023-07-30T04:30:32;2.05;;;1.88;;
11646;SDS011;5880;52.342;9.662;2023-07-30T04:32:57;2.08;;;1.80;;
11646;SDS011;5880;52.342;9.662;2023-07-30T04:35:23;3.10;;;1.70;;
11646;SDS011;5880;52.342;9.662;2023-07-30T04:37:49;2.30;;;1.75;;
11646;SDS011;5880;52.342;9.662;2023-07-30T04:40:14;3.67;;;1.90;;
11646;SDS011;5880;52.342;9.662;2023-07-30T04:42:40;3.15;;;1.90;;
11646;SDS011;5880;52.342;9.662;2023-07-30T04:45:06;3.13;;;2.00;;
11646;SDS011;5880;52.342;9.662;2023-07-30T04:47:32;4.38;;;2.05;;
11646;SDS011;5880;52.342;9.662;2023-07-30T04:49:58;2.33;;;1.90;;
11646;SDS011;5880;52.342;9.662;2023-07-30T04:52:23;4.18;;;2.15;;
11646;SDS011;5880;52.342;9.662;2023-07-30T04:54:49;2.75;;;2.30;;
11646;SDS011;5880;52.342;9.662;2023-07-30T04:57:15;4.32;;;2.70;;
11646;SDS011;5880;52.342;9.662;2023-07-30T04:59:41;2.53;;;2.17;;
11646;SDS011;5880;52.342;9.662;2023-07-30T05:02:06;2.78;;;2.28;;
11646;SDS011;5880;52.342;9.662;2023-07-30T05:04:32;3.38;;;2.50;;
11646;SDS011;5880;52.342;9.662;2023-07-30T05:06:58;2.65;;;2.38;;
11646;SDS011;5880;52.342;9.662;2023-07-30T05:09:23;3.30;;;2.33;;
11646;SDS011;5880;52.342;9.662;2023-07-30T05:11:49;3.95;;;2.38;;
11646;SDS011;5880;52.342;9.662;2023-07-30T05:14:14;3.60;;;2.63;;
11646;SDS011;5880;52.342;9.662;2023-07-30T05:16:40;4.22;;;2.72;;
11646;SDS011;5880;52.342;9.662;2023-07-30T05:19:06;3.55;;;2.70;;
11646;SDS011;5880;52.342;9.662;2023-07-30T05:21:31;3.72;;;2.58;;
11646;SDS011;5880;52.342;9.662;2023-07-30T05:23:57;3.53;;;2.55;;
11646;SDS011;5880;52.342;9.662;2023-07-30T05:26:23;3.63;;;2.67;;
11646;SDS011;5880;52.342;9.662;2023-07-30T05:28:48;3.60;;;2.83;;
11646;SDS011;5880;52.342;9.662;2023-07-30T05:31:14;4.07;;;2.42;;
11646;SDS011;5880;52.342;9.662;2023-07-30T05:33:40;2.70;;;2.50;;
11646;SDS011;5880;52.342;9.662;2023-07-30T05:36:05;3.83;;;2.65;;
11646;SDS011;5880;52.342;9.662;2023-07-30T05:38:31;2.90;;;2.42;;
11646;SDS011;5880;52.342;9.662;2023-07-30T05:40:57;5.18;;;2.70;;
11646;SDS011;5880;52.342;9.662;2023-07-30T05:43:22;3.53;;;2.35;;
11646;SDS011;5880;52.342;9.662;2023-07-30T05:45:48;4.03;;;2.75;;
11646;SDS011;5880;52.342;9.662;2023-07-30T05:48:14;2.75;;;2.55;;
11646;SDS011;5880;52.342;9.662;2023-07-30T05:50:39;2.88;;;2.38;;
11646;SDS011;5880;52.342;9.662;2023-07-30T05:53:05;3.53;;;2.25;;
11646;SDS011;5880;52.342;9.662;2023-07-30T05:55:31;3.30;;;2.40;;
11646;SDS011;5880;52.342;9.662;2023-07-30T05:57:56;2.95;;;2.35;;
11646;SDS011;5880;52.342;9.662;2023-07-30T06:00:23;3.05;;;2.10;;
11646;SDS011;5880;52.342;9.662;2023-07-30T06:02:49;2.40;;;2.20;;
11646;SDS011;5880;52.342;9.662;2023-07-30T06:05:15;3.97;;;2.45;;
11646;SDS011;5880;52.342;9.662;2023-07-30T06:07:40;2.72;;;2.38;;
11646;SDS011;5880;52.342;9.662;2023-07-30T06:10:06;2.35;;;2.15;;
11646;SDS011;5880;52.342;9.662;2023-07-30T06:12:32;3.65;;;2.10;;
11646;SDS011;5880;52.342;9.662;2023-07-30T06:14:58;3.33;;;2.60;;
11646;SDS011;5880;52.342;9.662;2023-07-30T06:17:23;2.58;;;2.38;;
11646;SDS011;5880;52.342;9.662;2023-07-30T06:19:49;2.30;;;2.08;;
11646;SDS011;5880;52.342;9.662;2023-07-30T06:22:15;3.63;;;2.40;;
11646;SDS011;5880;52.342;9.662;2023-07-30T06:24:40;2.38;;;1.95;;
11646;SDS011;5880;52.342;9.662;2023-07-30T06:27:06;2.70;;;2.00;;
11646;SDS011;5880;52.342;9.662;2023-07-30T06:29:34;3.97;;;2.38;;
11646;SDS011;5880;52.342;9.662;2023-07-30T06:32:01;2.65;;;2.00;;
11646;SDS011;5880;52.342;9.662;2023-07-30T06:34:27;2.03;;;1.73;;
11646;SDS011;5880;52.342;9.662;2023-07-30T06:36:52;3.00;;;2.00;;
11646;SDS011;5880;52.342;9.662;2023-07-30T06:39:18;2.60;;;1.90;;
11646;SDS011;5880;52.342;9.662;2023-07-30T06:41:44;3.63;;;1.80;;
11646;SDS011;5880;52.342;9.662;2023-07-30T06:44:09;1.98;;;1.70;;
11646;SDS011;5880;52.342;9.662;2023-07-30T06:46:35;2.13;;;1.58;;
11646;SDS011;5880;52.342;9.662;2023-07-30T06:49:00;1.50;;;1.35;;
11646;SDS011;5880;52.342;9.662;2023-07-30T06:51:26;2.80;;;1.70;;
11646;SDS011;5880;52.342;9.662;2023-07-30T06:53:52;2.72;;;1.63;;
11646;SDS011;5880;52.342;9.662;2023-07-30T06:56:18;1.83;;;1.50;;
11646;SDS011;5880;52.342;9.662;2023-07-30T06:58:43;4.22;;;1.80;;
11646;SDS011;5880;52.342;9.662;2023-07-30T07:01:09;2.05;;;1.42;;
11646;SDS011;5880;52.342;9.662;2023-07-30T07:03:35;1.30;;;1.20;;
11646;SDS011;5880;52.342;9.662;2023-07-30T07:06:00;2.28;;;1.30;;
11646;SDS011;5880;52.342;9.662;2023-07-30T07:08:26;1.48;;;1.10;;
11646;SDS011;5880;52.342;9.662;2023-07-30T07:10:52;4.50;;;1.40;;
11646;SDS011;5880;52.342;9.662;2023-07-30T07:13:18;1.30;;;1.20;;
11646;SDS011;5880;52.342;9.662;2023-07-30T07:15:44;1.63;;;1.20;;
11646;SDS011;5880;52.342;9.662;2023-07-30T07:18:10;2.20;;;1.40;;
11646;SDS011;5880;52.342;9.662;2023-07-30T07:20:36;1.52;;;1.30;;
11646;SDS011;5880;52.342;9.662;2023-07-30T07:23:03;2.05;;;1.48;;
11646;SDS011;5880;52.342;9.662;2023-07-30T07:25:29;2.47;;;1.20;;
11646;SDS011;5880;52.342;9.662;2023-07-30T07:27:55;2.67;;;1.60;;
11646;SDS011;5880;52.342;9.662;2023-07-30T07:30:20;1.77;;;1.50;;
11646;SDS011;5880;52.342;9.662;2023-07-30T07:32:46;2.45;;;1.55;;
11646;SDS011;5880;52.342;9.662;2023-07-30T07:35:15;1.83;;;1.30;;
11646;SDS011;5880;52.342;9.662;2023-07-30T07:37:43;2.10;;;1.42;;
11646;SDS011;5880;52.342;9.662;2023-07-30T07:40:09;3.08;;;1.60;;
11646;SDS011;5880;52.342;9.662;2023-07-30T07:42:35;2.30;;;1.60;;
11646;SDS011;5880;52.342;9.662;2023-07-30T07:45:01;2.72;;;1.50;;
11646;SDS011;5880;52.342;9.662;2023-07-30T07:47:26;3.40;;;1.67;;
11646;SDS011;5880;52.342;9.662;2023-07-30T07:49:52;1.83;;;1.48;;
11646;SDS011;5880;52.342;9.662;2023-07-30T07:52:18;3.50;;;1.73;;
11646;SDS011;5880;52.342;9.662;2023-07-30T07:54:45;2.95;;;1.85;;
11646;SDS011;5880;52.342;9.662;2023-07-30T07:57:11;2.15;;;1.52;;
11646;SDS011;5880;52.342;9.662;2023-07-30T07:59:37;2.50;;;1.90;;
11646;SDS011;5880;52.342;9.662;2023-07-30T08:02:02;3.58;;;1.83;;
11646;SDS011;5880;52.342;9.662;2023-07-30T08:04:28;2.22;;;1.70;;
11646;SDS011;5880;52.342;9.662;2023-07-30T08:06:54;2.60;;;1.48;;
11646;SDS011;5880;52.342;9.662;2023-07-30T08:09:19;1.77;;;1.48;;
11646;SDS011;5880;52.342;9.662;2023-07-30T08:11:46;1.92;;;1.80;;
11646;SDS011;5880;52.342;9.662;2023-07-30T08:14:12;1.98;;;1.73;;
11646;SDS011;5880;52.342;9.662;2023-07-30T08:16:37;4.07;;;2.10;;
11646;SDS011;5880;52.342;9.662;2023-07-30T08:19:03;3.20;;;2.10;;
11646;SDS011;5880;52.342;9.662;2023-07-30T08:21:29;2.47;;;2.17;;
11646;SDS011;5880;52.342;9.662;2023-07-30T08:23:54;3.03;;;2.17;;
11646;SDS011;5880;52.342;9.662;2023-07-30T08:26:20;2.60;;;2.10;;
11646;SDS011;5880;52.342;9.662;2023-07-30T08:28:46;4.03;;;2.35;;
11646;SDS011;5880;52.342;9.662;2023-07-30T08:31:11;5.78;;;2.40;;
11646;SDS011;5880;52.342;9.662;2023-07-30T08:33:37;3.58;;;2.25;;
11646;SDS011;5880;52.342;9.662;2023-07-30T08:36:03;4.55;;;2.40;;
11646;SDS011;5880;52.342;9.662;2023-07-30T08:38:28;2.22;;;1.90;;
11646;SDS011;5880;52.342;9.662;2023-07-30T08:40:55;5.32;;;2.33;;
11646;SDS011;5880;52.342;9.662;2023-07-30T08:43:21;2.92;;;2.40;;
11646;SDS011;5880;52.342;9.662;2023-07-30T08:45:47;2.63;;;2.33;;
11646;SDS011;5880;52.342;9.662;2023-07-30T08:48:13;3.20;;;2.25;;
11646;SDS011;5880;52.342;9.662;2023-07-30T08:50:38;3.05;;;2.47;;
11646;SDS011;5880;52.342;9.662;2023-07-30T08:53:06;3.17;;;2.42;;
11646;SDS011;5880;52.342;9.662;2023-07-30T08:55:33;3.13;;;2.22;;
11646;SDS011;5880;52.342;9.662;2023-07-30T08:58:03;2.85;;;2.58;;
11646;SDS011;5880;52.342;9.662;2023-07-30T09:00:31;2.47;;;2.25;;
11646;SDS011;5880;52.342;9.662;2023-07-30T09:03:03;3.45;;;2.75;;
11646;SDS011;5880;52.342;9.662;2023-07-30T09:05:30;4.20;;;2.95;;
11646;SDS011;5880;52.342;9.662;2023-07-30T09:07:56;3.20;;;2.90;;
11646;SDS011;5880;52.342;9.662;2023-07-30T09:10:23;3.33;;;3.03;;
11646;SDS011;5880;52.342;9.662;2023-07-30T09:12:54;3.85;;;3.25;;
11646;SDS011;5880;52.342;9.662;2023-07-30T09:15:33;3.75;;;2.90;;
11646;SDS011;5880;52.342;9.662;2023-07-30T09:18:03;4.55;;;3.22;;
11646;SDS011;5880;52.342;9.662;2023-07-30T09:20:40;4.18;;;3.53;;
11646;SDS011;5880;52.342;9.662;2023-07-30T09:23:07;5.05;;;3.50;;
11646;SDS011;5880;52.342;9.662;2023-07-30T09:25:35;3.60;;;3.30;;
11646;SDS011;5880;52.342;9.662;2023-07-30T09:28:02;4.82;;;3.33;;
11646;SDS011;5880;52.342;9.662;2023-07-30T09:30:28;4.07;;;3.35;;
11646;SDS011;5880;52.342;9.662;2023-07-30T09:32:55;3.78;;;3.45;;
11646;SDS011;5880;52.342;9.662;2023-07-30T09:35:23;6.00;;;3.53;;
11646;SDS011;5880;52.342;9.662;2023-07-30T09:37:50;5.18;;;3.17;;
11646;SDS011;5880;52.342;9.662;2023-07-30T09:40:32;3.50;;;2.92;;
11646;SDS011;5880;52.342;9.662;2023-07-30T09:43:00;3.30;;;3.00;;
11646;SDS011;5880;52.342;9.662;2023-07-30T09:45:33;3.92;;;2.90;;
11646;SDS011;5880;52.342;9.662;2023-07-30T09:48:01;3.72;;;2.88;;
11646;SDS011;5880;52.342;9.662;2023-07-30T09:50:30;3.53;;;2.95;;
11646;SDS011;5880;52.342;9.662;2023-07-30T09:53:01;4.40;;;3.28;;
11646;SDS011;5880;52.342;9.662;2023-07-30T09:55:28;3.97;;;3.05;;
11646;SDS011;5880;52.342;9.662;2023-07-30T09:57:54;2.92;;;2.70;;
11646;SDS011;5880;52.342;9.662;2023-07-30T10:00:19;3.55;;;3.25;;
11646;SDS011;5880;52.342;9.662;2023-07-30T10:02:45;5.60;;;3.28;;
11646;SDS011;5880;52.342;9.662;2023-07-30T10:05:16;4.15;;;3.50;;
11646;SDS011;5880;52.342;9.662;2023-07-30T10:07:49;3.70;;;3.22;;
11646;SDS011;5880;52.342;9.662;2023-07-30T10:10:34;3.05;;;2.83;;
11646;SDS011;5880;52.342;9.662;2023-07-30T10:13:02;4.10;;;3.30;;
11646;SDS011;5880;52.342;9.662;2023-07-30T10:15:35;4.07;;;3.33;;
11646;SDS011;5880;52.342;9.662;2023-07-30T10:18:03;4.50;;;3.50;;
11646;SDS011;5880;52.342;9.662;2023-07-30T10:20:30;5.32;;;3.75;;
11646;SDS011;5880;52.342;9.662;2023-07-30T10:22:57;3.65;;;3.35;;
11646;SDS011;5880;52.342;9.662;2023-07-30T10:25:41;4.60;;;4.15;;
11646;SDS011;5880;52.342;9.662;2023-07-30T10:28:44;4.65;;;4.18;;
11646;SDS011;5880;52.342;9.662;2023-07-30T10:31:07;5.15;;;4.10;;
11646;SDS011;5880;52.342;9.662;2023-07-30T10:36:18;5.13;;;4.40;;
11646;SDS011;5880;52.342;9.662;2023-07-30T10:38:58;7.20;;;4.40;;
11646;SDS011;5880;52.342;9.662;2023-07-30T10:41:49;5.95;;;4.38;;
11646;SDS011;5880;52.342;9.662;2023-07-30T10:44:26;6.25;;;4.47;;
11646;SDS011;5880;52.342;9.662;2023-07-30T10:46:56;5.88;;;4.72;;
11646;SDS011;5880;52.342;9.662;2023-07-30T10:49:24;6.13;;;4.95;;
11646;SDS011;5880;52.342;9.662;2023-07-30T10:51:56;5.45;;;4.93;;
11646;SDS011;5880;52.342;9.662;2023-07-30T10:54:22;5.40;;;4.90;;
11646;SDS011;5880;52.342;9.662;2023-07-30T10:56:49;4.90;;;4.47;;
11646;SDS011;5880;52.342;9.662;2023-07-30T10:59:15;7.20;;;4.97;;
11646;SDS011;5880;52.342;9.662;2023-07-30T11:01:41;5.40;;;4.90;;
11646;SDS011;5880;52.342;9.662;2023-07-30T11:04:09;5.10;;;4.55;;
11646;SDS011;5880;52.342;9.662;2023-07-30T11:06:38;5.70;;;4.70;;
11646;SDS011;5880;52.342;9.662;2023-07-30T11:09:04;5.57;;;4.95;;
11646;SDS011;5880;52.342;9.662;2023-07-30T11:11:31;7.13;;;5.05;;
11646;SDS011;5880;52.342;9.662;2023-07-30T11:13:57;9.68;;;5.70;;
11646;SDS011;5880;52.342;9.662;2023-07-30T11:16:24;6.63;;;5.47;;
11646;SDS011;5880;52.342;9.662;2023-07-30T11:18:50;5.53;;;5.03;;
11646;SDS011;5880;52.342;9.662;2023-07-30T11:21:16;7.38;;;5.65;;
11646;SDS011;5880;52.342;9.662;2023-07-30T11:23:44;6.63;;;5.68;;
11646;SDS011;5880;52.342;9.662;2023-07-30T11:26:14;6.45;;;5.85;;
11646;SDS011;5880;52.342;9.662;2023-07-30T11:28:43;7.20;;;6.50;;
11646;SDS011;5880;52.342;9.662;2023-07-30T11:31:17;6.60;;;6.00;;
11646;SDS011;5880;52.342;9.662;2023-07-30T11:33:46;8.32;;;7.15;;
11646;SDS011;5880;52.342;9.662;2023-07-30T11:36:14;10.82;;;7.40;;
11646;SDS011;5880;52.342;9.662;2023-07-30T11:38:43;7.32;;;6.63;;
11646;SDS011;5880;52.342;9.662;2023-07-30T11:41:11;8.18;;;7.20;;
11646;SDS011;5880;52.342;9.662;2023-07-30T11:43:39;9.52;;;7.18;;
11646;SDS011;5880;52.342;9.662;2023-07-30T11:46:07;8.35;;;7.55;;
11646;SDS011;5880;52.342;9.662;2023-07-30T11:48:33;8.55;;;7.18;;
11646;SDS011;5880;52.342;9.662;2023-07-30T11:51:00;8.18;;;7.35;;
11646;SDS011;5880;52.342;9.662;2023-07-30T11:56:17;6.93;;;6.28;;
11646;SDS011;5880;52.342;9.662;2023-07-30T11:58:47;8.43;;;6.68;;
11646;SDS011;5880;52.342;9.662;2023-07-30T12:01:14;9.30;;;6.60;;
11646;SDS011;5880;52.342;9.662;2023-07-30T12:03:41;7.07;;;6.32;;
11646;SDS011;5880;52.342;9.662;2023-07-30T12:06:08;6.85;;;5.97;;
11646;SDS011;5880;52.342;9.662;2023-07-30T12:08:36;6.85;;;5.32;;
11646;SDS011;5880;52.342;9.662;2023-07-30T12:11:02;7.20;;;5.75;;
11646;SDS011;5880;52.342;9.662;2023-07-30T12:13:33;5.80;;;5.30;;
11646;SDS011;5880;52.342;9.662;2023-07-30T12:16:06;5.57;;;5.03;;
11646;SDS011;5880;52.342;9.662;2023-07-30T12:18:32;5.22;;;4.80;;
11646;SDS011;5880;52.342;9.662;2023-07-30T12:20:57;7.18;;;4.72;;
11646;SDS011;5880;52.342;9.662;2023-07-30T12:23:23;6.22;;;4.28;;
11646;SDS011;5880;52.342;9.662;2023-07-30T12:25:49;5.68;;;5.05;;
11646;SDS011;5880;52.342;9.662;2023-07-30T12:28:16;5.20;;;4.70;;
11646;SDS011;5880;52.342;9.662;2023-07-30T12:30:41;5.72;;;4.65;;
11646;SDS011;5880;52.342;9.662;2023-07-30T12:33:07;6.32;;;4.70;;
11646;SDS011;5880;52.342;9.662;2023-07-30T12:35:33;6.20;;;4.47;;
11646;SDS011;5880;52.342;9.662;2023-07-30T12:37:59;5.63;;;4.15;;
11646;SDS011;5880;52.342;9.662;2023-07-30T12:40:25;5.70;;;3.92;;
11646;SDS011;5880;52.342;9.662;2023-07-30T12:42:54;4.55;;;4.15;;
11646;SDS011;5880;52.342;9.662;2023-07-30T12:45:20;4.15;;;3.67;;
11646;SDS011;5880;52.342;9.662;2023-07-30T12:47:46;4.57;;;4.00;;
11646;SDS011;5880;52.342;9.662;2023-07-30T12:50:12;3.97;;;3.53;;
11646;SDS011;5880;52.342;9.662;2023-07-30T12:52:37;4.50;;;3.42;;
11646;SDS011;5880;52.342;9.662;2023-07-30T12:55:04;3.60;;;3.30;;
11646;SDS011;5880;52.342;9.662;2023-07-30T12:57:30;4.03;;;3.20;;
11646;SDS011;5880;52.342;9.662;2023-07-30T12:59:56;3.28;;;2.97;;
11646;SDS011;5880;52.342;9.662;2023-07-30T13:02:22;3.78;;;3.38;;
11646;SDS011;5880;52.342;9.662;2023-07-30T13:04:47;3.70;;;3.17;;
11646;SDS011;5880;52.342;9.662;2023-07-30T13:07:13;3.92;;;3.22;;
11646;SDS011;5880;52.342;9.662;2023-07-30T13:09:39;4.22;;;3.10;;
11646;SDS011;5880;52.342;9.662;2023-07-30T13:12:05;3.92;;;3.35;;
11646;SDS011;5880;52.342;9.662;2023-07-30T13:14:31;4.63;;;3.58;;
11646;SDS011;5880;52.342;9.662;2023-07-30T13:16:57;3.60;;;3.30;;
11646;SDS011;5880;52.342;9.662;2023-07-30T13:19:22;4.38;;;3.13;;
11646;SDS011;5880;52.342;9.662;2023-07-30T13:21:48;3.78;;;3.10;;
11646;SDS011;5880;52.342;9.662;2023-07-30T13:24:14;3.45;;;3.10;;
11646;SDS011;5880;52.342;9.662;2023-07-30T13:26:39;3.67;;;2.88;;
11646;SDS011;5880;52.342;9.662;2023-07-30T13:29:05;2.90;;;2.60;;
11646;SDS011;5880;52.342;9.662;2023-07-30T13:31:30;3.72;;;2.67;;
11646;SDS011;5880;52.342;9.662;2023-07-30T13:33:56;3.63;;;3.08;;
11646;SDS011;5880;52.342;9.662;2023-07-30T13:36:22;3.17;;;2.88;;
11646;SDS011;5880;52.342;9.662;2023-07-30T13:38:48;4.30;;;2.75;;
11646;SDS011;5880;52.342;9.662;2023-07-30T13:41:13;5.40;;;3.00;;
11646;SDS011;5880;52.342;9.662;2023-07-30T13:43:39;3.20;;;2.78;;
11646;SDS011;5880;52.342;9.662;2023-07-30T13:46:05;3.17;;;2.70;;
11646;SDS011;5880;52.342;9.662;2023-07-30T13:48:31;3.22;;;2.70;;
11646;SDS011;5880;52.342;9.662;2023-07-30T13:50:56;2.85;;;2.45;;
11646;SDS011;5880;52.342;9.662;2023-07-30T13:53:22;3.03;;;2.70;;
11646;SDS011;5880;52.342;9.662;2023-07-30T13:55:48;2.60;;;2.35;;
11646;SDS011;5880;52.342;9.662;2023-07-30T13:58:14;2.75;;;2.22;;
11646;SDS011;5880;52.342;9.662;2023-07-30T14:00:40;3.15;;;2.05;;
11646;SDS011;5880;52.342;9.662;2023-07-30T14:03:09;1.88;;;1.77;;
11646;SDS011;5880;52.342;9.662;2023-07-30T14:05:36;2.42;;;2.20;;
11646;SDS011;5880;52.342;9.662;2023-07-30T14:08:03;3.08;;;2.20;;
11646;SDS011;5880;52.342;9.662;2023-07-30T14:10:28;1.90;;;1.67;;
11646;SDS011;5880;52.342;9.662;2023-07-30T14:12:54;4.07;;;1.90;;
11646;SDS011;5880;52.342;9.662;2023-07-30T14:15:20;1.88;;;1.60;;
11646;SDS011;5880;52.342;9.662;2023-07-30T14:17:45;2.70;;;1.77;;
11646;SDS011;5880;52.342;9.662;2023-07-30T14:20:11;1.65;;;1.30;;
11646;SDS011;5880;52.342;9.662;2023-07-30T14:22:37;5.75;;;1.50;;
11646;SDS011;5880;52.342;9.662;2023-07-30T14:25:02;2.25;;;1.45;;
11646;SDS011;5880;52.342;9.662;2023-07-30T14:27:29;1.45;;;1.20;;
11646;SDS011;5880;52.342;9.662;2023-07-30T14:29:54;2.00;;;1.20;;
11646;SDS011;5880;52.342;9.662;2023-07-30T14:32:20;1.40;;;1.30;;
11646;SDS011;5880;52.342;9.662;2023-07-30T14:34:46;2.05;;;1.30;;
11646;SDS011;5880;52.342;9.662;2023-07-30T14:37:12;1.42;;;1.25;;
11646;SDS011;5880;52.342;9.662;2023-07-30T14:39:39;2.45;;;1.48;;
11646;SDS011;5880;52.342;9.662;2023-07-30T14:42:05;3.17;;;1.33;;
11646;SDS011;5880;52.342;9.662;2023-07-30T14:44:31;2.33;;;1.45;;
11646;SDS011;5880;52.342;9.662;2023-07-30T14:46:57;1.40;;;1.30;;
11646;SDS011;5880;52.342;9.662;2023-07-30T14:49:23;1.92;;;1.38;;
11646;SDS011;5880;52.342;9.662;2023-07-30T14:51:49;1.70;;;1.13;;
11646;SDS011;5880;52.342;9.662;2023-07-30T14:54:18;2.72;;;1.25;;
11646;SDS011;5880;52.342;9.662;2023-07-30T14:56:43;2.17;;;1.35;;
11646;SDS011;5880;52.342;9.662;2023-07-30T14:59:10;1.48;;;1.13;;
11646;SDS011;5880;52.342;9.662;2023-07-30T15:01:35;2.28;;;1.25;;
11646;SDS011;5880;52.342;9.662;2023-07-30T15:04:01;2.38;;;1.20;;